sensor_id;sensor_type;location;lat;lon;timestamp;P1;durP1;ratioP1;P2;durP2;ratioP2
55364;SDS011;41245;45.384;20.390;2022-08-18T00:00:42;7.55;;;5.03;;
55364;SDS011;41245;45.384;20.390;2022-08-18T00:03:08;11.30;;;4.32;;
55364;SDS011;41245;45.384;20.390;2022-08-18T00:05:35;8.88;;;4.70;;
55364;SDS011;41245;45.384;20.390;2022-08-18T00:08:02;6.65;;;4.30;;
55364;SDS011;41245;45.384;20.390;2022-08-18T00:10:29;7.57;;;4.53;;
55364;SDS011;41245;45.384;20.390;2022-08-18T00:12:56;6.93;;;4.50;;
55364;SDS011;41245;45.384;20.390;2022-08-18T00:15:22;7.72;;;4.60;;
55364;SDS011;41245;45.384;20.390;2022-08-18T00:17:48;5.18;;;4.18;;
55364;SDS011;41245;45.384;20.390;2022-08-18T00:20:18;6.05;;;5.00;;
55364;SDS011;41245;45.384;20.390;2022-08-18T00:22:46;10.38;;;4.72;;
55364;SDS011;41245;45.384;20.390;2022-08-18T00:25:13;5.60;;;4.93;;
55364;SDS011;41245;45.384;20.390;2022-08-18T00:27:39;8.07;;;5.05;;
55364;SDS011;41245;45.384;20.390;2022-08-18T00:30:07;8.52;;;4.90;;
55364;SDS011;41245;45.384;20.390;2022-08-18T00:32:37;8.35;;;5.03;;
55364;SDS011;41245;45.384;20.390;2022-08-18T00:35:06;10.75;;;5.53;;
55364;SDS011;41245;45.384;20.390;2022-08-18T00:37:37;7.07;;;4.22;;
55364;SDS011;41245;45.384;20.390;2022-08-18T00:40:04;7.78;;;4.35;;
55364;SDS011;41245;45.384;20.390;2022-08-18T00:42:31;6.50;;;4.03;;
55364;SDS011;41245;45.384;20.390;2022-08-18T00:44:59;5.55;;;4.32;;
55364;SDS011;41245;45.384;20.390;2022-08-18T00:47:28;14.05;;;5.32;;
55364;SDS011;41245;45.384;20.390;2022-08-18T00:49:55;4.53;;;4.10;;
55364;SDS011;41245;45.384;20.390;2022-08-18T00:52:21;13.73;;;4.82;;
55364;SDS011;41245;45.384;20.390;2022-08-18T00:54:48;8.93;;;4.50;;
55364;SDS011;41245;45.384;20.390;2022-08-18T00:57:17;9.23;;;4.72;;
55364;SDS011;41245;45.384;20.390;2022-08-18T00:59:47;6.00;;;4.78;;
55364;SDS011;41245;45.384;20.390;2022-08-18T01:02:38;9.80;;;4.50;;
55364;SDS011;41245;45.384;20.390;2022-08-18T01:05:14;25.20;;;6.15;;
55364;SDS011;41245;45.384;20.390;2022-08-18T01:10:17;12.52;;;4.93;;
55364;SDS011;41245;45.384;20.390;2022-08-18T01:12:47;12.88;;;4.90;;
55364;SDS011;41245;45.384;20.390;2022-08-18T01:15:15;15.30;;;4.97;;
55364;SDS011;41245;45.384;20.390;2022-08-18T01:17:43;6.25;;;4.10;;
55364;SDS011;41245;45.384;20.390;2022-08-18T01:20:38;6.80;;;4.60;;
55364;SDS011;41245;45.384;20.390;2022-08-18T01:23:42;12.07;;;4.93;;
55364;SDS011;41245;45.384;20.390;2022-08-18T01:26:10;6.28;;;4.35;;
55364;SDS011;41245;45.384;20.390;2022-08-18T01:28:38;6.00;;;4.22;;
55364;SDS011;41245;45.384;20.390;2022-08-18T01:31:06;8.25;;;4.70;;
55364;SDS011;41245;45.384;20.390;2022-08-18T01:33:35;9.80;;;5.10;;
55364;SDS011;41245;45.384;20.390;2022-08-18T01:36:20;8.67;;;4.73;;
55364;SDS011;41245;45.384;20.390;2022-08-18T01:38:48;6.57;;;4.57;;
55364;SDS011;41245;45.384;20.390;2022-08-18T01:41:16;8.57;;;4.22;;
55364;SDS011;41245;45.384;20.390;2022-08-18T01:43:43;7.10;;;4.97;;
55364;SDS011;41245;45.384;20.390;2022-08-18T01:46:10;9.77;;;4.93;;
55364;SDS011;41245;45.384;20.390;2022-08-18T01:48:37;7.47;;;4.88;;
55364;SDS011;41245;45.384;20.390;2022-08-18T01:51:05;11.30;;;5.18;;
55364;SDS011;41245;45.384;20.390;2022-08-18T01:53:33;6.97;;;4.88;;
55364;SDS011;41245;45.384;20.390;2022-08-18T01:55:59;10.27;;;4.95;;
55364;SDS011;41245;45.384;20.390;2022-08-18T01:58:28;5.53;;;4.77;;
55364;SDS011;41245;45.384;20.390;2022-08-18T02:00:54;7.35;;;4.55;;
55364;SDS011;41245;45.384;20.390;2022-08-18T02:03:22;10.88;;;4.95;;
55364;SDS011;41245;45.384;20.390;2022-08-18T02:05:51;9.93;;;5.22;;
55364;SDS011;41245;45.384;20.390;2022-08-18T02:08:23;5.93;;;5.32;;
55364;SDS011;41245;45.384;20.390;2022-08-18T02:10:49;8.85;;;5.20;;
55364;SDS011;41245;45.384;20.390;2022-08-18T02:13:15;8.05;;;5.30;;
55364;SDS011;41245;45.384;20.390;2022-08-18T02:15:40;7.82;;;5.07;;
55364;SDS011;41245;45.384;20.390;2022-08-18T02:18:12;9.05;;;5.97;;
55364;SDS011;41245;45.384;20.390;2022-08-18T02:20:39;11.95;;;5.55;;
55364;SDS011;41245;45.384;20.390;2022-08-18T02:23:05;12.75;;;5.63;;
55364;SDS011;41245;45.384;20.390;2022-08-18T02:25:30;7.13;;;4.97;;
55364;SDS011;41245;45.384;20.390;2022-08-18T02:27:56;12.63;;;6.15;;
55364;SDS011;41245;45.384;20.390;2022-08-18T02:30:22;8.93;;;5.75;;
55364;SDS011;41245;45.384;20.390;2022-08-18T02:32:48;9.77;;;5.15;;
55364;SDS011;41245;45.384;20.390;2022-08-18T02:35:14;9.48;;;6.15;;
55364;SDS011;41245;45.384;20.390;2022-08-18T02:37:40;9.65;;;5.82;;
55364;SDS011;41245;45.384;20.390;2022-08-18T02:40:11;6.88;;;5.55;;
55364;SDS011;41245;45.384;20.390;2022-08-18T02:42:38;11.95;;;5.40;;
55364;SDS011;41245;45.384;20.390;2022-08-18T02:45:04;7.75;;;5.47;;
55364;SDS011;41245;45.384;20.390;2022-08-18T02:47:30;12.65;;;6.15;;
55364;SDS011;41245;45.384;20.390;2022-08-18T02:49:56;10.20;;;5.45;;
55364;SDS011;41245;45.384;20.390;2022-08-18T02:52:22;11.20;;;6.43;;
55364;SDS011;41245;45.384;20.390;2022-08-18T02:54:52;12.25;;;5.90;;
55364;SDS011;41245;45.384;20.390;2022-08-18T02:57:18;11.02;;;5.60;;
55364;SDS011;41245;45.384;20.390;2022-08-18T02:59:47;11.10;;;5.47;;
55364;SDS011;41245;45.384;20.390;2022-08-18T03:02:13;7.38;;;5.15;;
55364;SDS011;41245;45.384;20.390;2022-08-18T03:04:39;9.40;;;6.70;;
55364;SDS011;41245;45.384;20.390;2022-08-18T03:07:05;14.15;;;5.90;;
55364;SDS011;41245;45.384;20.390;2022-08-18T03:09:31;11.60;;;6.03;;
55364;SDS011;41245;45.384;20.390;2022-08-18T03:11:58;11.60;;;5.85;;
55364;SDS011;41245;45.384;20.390;2022-08-18T03:14:24;13.00;;;6.60;;
55364;SDS011;41245;45.384;20.390;2022-08-18T03:16:50;9.15;;;6.47;;
55364;SDS011;41245;45.384;20.390;2022-08-18T03:19:15;15.55;;;6.93;;
55364;SDS011;41245;45.384;20.390;2022-08-18T03:21:42;16.48;;;7.07;;
55364;SDS011;41245;45.384;20.390;2022-08-18T03:24:10;15.45;;;7.28;;
55364;SDS011;41245;45.384;20.390;2022-08-18T03:26:39;15.63;;;7.53;;
55364;SDS011;41245;45.384;20.390;2022-08-18T03:29:07;19.50;;;8.27;;
55364;SDS011;41245;45.384;20.390;2022-08-18T03:31:33;17.05;;;7.85;;
55364;SDS011;41245;45.384;20.390;2022-08-18T03:34:02;13.25;;;7.50;;
55364;SDS011;41245;45.384;20.390;2022-08-18T03:36:29;16.55;;;9.00;;
55364;SDS011;41245;45.384;20.390;2022-08-18T03:38:58;15.63;;;8.35;;
55364;SDS011;41245;45.384;20.390;2022-08-18T03:41:31;17.00;;;8.13;;
55364;SDS011;41245;45.384;20.390;2022-08-18T03:43:57;12.60;;;8.20;;
55364;SDS011;41245;45.384;20.390;2022-08-18T03:46:22;14.57;;;7.97;;
55364;SDS011;41245;45.384;20.390;2022-08-18T03:48:49;21.75;;;9.57;;
55364;SDS011;41245;45.384;20.390;2022-08-18T03:51:21;14.60;;;8.30;;
55364;SDS011;41245;45.384;20.390;2022-08-18T03:53:50;16.70;;;8.50;;
55364;SDS011;41245;45.384;20.390;2022-08-18T03:56:22;17.52;;;8.88;;
55364;SDS011;41245;45.384;20.390;2022-08-18T03:59:00;15.65;;;8.38;;
55364;SDS011;41245;45.384;20.390;2022-08-18T04:01:30;12.13;;;7.13;;
55364;SDS011;41245;45.384;20.390;2022-08-18T04:03:58;15.82;;;8.73;;
55364;SDS011;41245;45.384;20.390;2022-08-18T04:06:30;13.57;;;8.07;;
55364;SDS011;41245;45.384;20.390;2022-08-18T04:09:00;12.18;;;7.50;;
55364;SDS011;41245;45.384;20.390;2022-08-18T04:11:29;11.60;;;7.90;;
55364;SDS011;41245;45.384;20.390;2022-08-18T04:13:57;13.30;;;8.63;;
55364;SDS011;41245;45.384;20.390;2022-08-18T04:16:26;19.83;;;8.05;;
55364;SDS011;41245;45.384;20.390;2022-08-18T04:18:55;16.30;;;9.18;;
55364;SDS011;41245;45.384;20.390;2022-08-18T04:21:24;18.67;;;8.50;;
55364;SDS011;41245;45.384;20.390;2022-08-18T04:23:49;17.80;;;8.10;;
55364;SDS011;41245;45.384;20.390;2022-08-18T04:26:15;16.08;;;8.32;;
55364;SDS011;41245;45.384;20.390;2022-08-18T04:28:42;21.00;;;8.82;;
55364;SDS011;41245;45.384;20.390;2022-08-18T04:31:09;17.30;;;8.52;;
55364;SDS011;41245;45.384;20.390;2022-08-18T04:33:37;12.68;;;8.43;;
55364;SDS011;41245;45.384;20.390;2022-08-18T04:36:11;19.60;;;8.60;;
55364;SDS011;41245;45.384;20.390;2022-08-18T04:38:38;15.18;;;8.02;;
55364;SDS011;41245;45.384;20.390;2022-08-18T04:41:09;16.65;;;8.40;;
55364;SDS011;41245;45.384;20.390;2022-08-18T04:43:37;17.02;;;8.20;;
55364;SDS011;41245;45.384;20.390;2022-08-18T04:46:04;13.90;;;8.05;;
55364;SDS011;41245;45.384;20.390;2022-08-18T04:48:31;11.13;;;7.25;;
55364;SDS011;41245;45.384;20.390;2022-08-18T04:51:32;11.60;;;8.07;;
55364;SDS011;41245;45.384;20.390;2022-08-18T04:53:53;19.92;;;7.60;;
55364;SDS011;41245;45.384;20.390;2022-08-18T04:56:27;24.55;;;7.63;;
55364;SDS011;41245;45.384;20.390;2022-08-18T04:59:05;13.77;;;7.53;;
55364;SDS011;41245;45.384;20.390;2022-08-18T05:01:35;28.77;;;8.60;;
55364;SDS011;41245;45.384;20.390;2022-08-18T05:04:02;11.20;;;6.65;;
55364;SDS011;41245;45.384;20.390;2022-08-18T05:06:29;22.17;;;7.85;;
55364;SDS011;41245;45.384;20.390;2022-08-18T05:08:59;27.55;;;7.78;;
55364;SDS011;41245;45.384;20.390;2022-08-18T05:11:28;19.15;;;7.90;;
55364;SDS011;41245;45.384;20.390;2022-08-18T05:13:57;28.05;;;7.40;;
55364;SDS011;41245;45.384;20.390;2022-08-18T05:16:24;19.38;;;7.57;;
55364;SDS011;41245;45.384;20.390;2022-08-18T05:18:50;27.92;;;7.55;;
55364;SDS011;41245;45.384;20.390;2022-08-18T05:21:18;21.27;;;7.50;;
55364;SDS011;41245;45.384;20.390;2022-08-18T05:23:45;11.07;;;7.25;;
55364;SDS011;41245;45.384;20.390;2022-08-18T05:26:13;18.63;;;8.93;;
55364;SDS011;41245;45.384;20.390;2022-08-18T05:28:40;19.67;;;7.65;;
55364;SDS011;41245;45.384;20.390;2022-08-18T05:31:27;17.65;;;7.32;;
55364;SDS011;41245;45.384;20.390;2022-08-18T05:33:53;19.83;;;8.80;;
55364;SDS011;41245;45.384;20.390;2022-08-18T05:41:28;21.38;;;8.25;;
55364;SDS011;41245;45.384;20.390;2022-08-18T05:43:58;17.27;;;6.97;;
55364;SDS011;41245;45.384;20.390;2022-08-18T05:46:29;14.65;;;6.35;;
55364;SDS011;41245;45.384;20.390;2022-08-18T05:49:04;13.35;;;6.25;;
55364;SDS011;41245;45.384;20.390;2022-08-18T05:51:35;10.57;;;5.57;;
55364;SDS011;41245;45.384;20.390;2022-08-18T05:54:03;22.63;;;6.68;;
55364;SDS011;41245;45.384;20.390;2022-08-18T05:56:48;14.63;;;5.18;;
55364;SDS011;41245;45.384;20.390;2022-08-18T05:59:19;16.92;;;6.60;;
55364;SDS011;41245;45.384;20.390;2022-08-18T06:01:48;9.73;;;5.30;;
55364;SDS011;41245;45.384;20.390;2022-08-18T06:06:53;8.55;;;6.00;;
55364;SDS011;41245;45.384;20.390;2022-08-18T06:09:31;15.63;;;6.15;;
55364;SDS011;41245;45.384;20.390;2022-08-18T06:12:26;13.60;;;5.63;;
55364;SDS011;41245;45.384;20.390;2022-08-18T06:15:03;14.57;;;5.50;;
55364;SDS011;41245;45.384;20.390;2022-08-18T06:23:52;18.17;;;6.30;;
55364;SDS011;41245;45.384;20.390;2022-08-18T06:26:30;16.08;;;5.90;;
55364;SDS011;41245;45.384;20.390;2022-08-18T06:31:42;14.55;;;5.63;;
55364;SDS011;41245;45.384;20.390;2022-08-18T06:39:26;20.95;;;6.82;;
55364;SDS011;41245;45.384;20.390;2022-08-18T06:41:59;17.92;;;6.68;;
55364;SDS011;41245;45.384;20.390;2022-08-18T06:47:11;18.25;;;7.22;;
55364;SDS011;41245;45.384;20.390;2022-08-18T06:52:28;7.80;;;5.05;;
55364;SDS011;41245;45.384;20.390;2022-08-18T06:55:02;10.10;;;5.05;;
55364;SDS011;41245;45.384;20.390;2022-08-18T07:00:09;13.05;;;4.85;;
55364;SDS011;41245;45.384;20.390;2022-08-18T07:08:06;12.07;;;4.07;;
55364;SDS011;41245;45.384;20.390;2022-08-18T07:10:38;8.07;;;3.90;;
55364;SDS011;41245;45.384;20.390;2022-08-18T07:15:42;7.10;;;4.05;;
55364;SDS011;41245;45.384;20.390;2022-08-18T07:18:10;11.77;;;4.25;;
55364;SDS011;41245;45.384;20.390;2022-08-18T07:20:44;9.50;;;4.40;;
55364;SDS011;41245;45.384;20.390;2022-08-18T07:23:19;9.18;;;4.22;;
55364;SDS011;41245;45.384;20.390;2022-08-18T07:26:18;8.52;;;4.30;;
55364;SDS011;41245;45.384;20.390;2022-08-18T07:28:44;7.22;;;4.20;;
55364;SDS011;41245;45.384;20.390;2022-08-18T07:34:05;10.20;;;4.15;;
55364;SDS011;41245;45.384;20.390;2022-08-18T07:36:48;8.13;;;3.92;;
55364;SDS011;41245;45.384;20.390;2022-08-18T07:39:25;6.63;;;3.80;;
55364;SDS011;41245;45.384;20.390;2022-08-18T07:42:12;11.38;;;4.80;;
55364;SDS011;41245;45.384;20.390;2022-08-18T07:47:19;7.10;;;4.25;;
55364;SDS011;41245;45.384;20.390;2022-08-18T07:49:51;6.32;;;4.07;;
55364;SDS011;41245;45.384;20.390;2022-08-18T07:52:28;10.68;;;4.53;;
55364;SDS011;41245;45.384;20.390;2022-08-18T07:55:10;10.48;;;5.03;;
55364;SDS011;41245;45.384;20.390;2022-08-18T08:00:35;11.27;;;5.32;;
55364;SDS011;41245;45.384;20.390;2022-08-18T08:05:46;5.95;;;4.10;;
55364;SDS011;41245;45.384;20.390;2022-08-18T08:16:50;7.35;;;4.45;;
55364;SDS011;41245;45.384;20.390;2022-08-18T08:22:04;9.10;;;4.32;;
55364;SDS011;41245;45.384;20.390;2022-08-18T08:30:22;17.15;;;4.50;;
55364;SDS011;41245;45.384;20.390;2022-08-18T08:33:05;12.48;;;5.00;;
55364;SDS011;41245;45.384;20.390;2022-08-18T08:35:54;8.75;;;3.97;;
55364;SDS011;41245;45.384;20.390;2022-08-18T08:38:44;5.95;;;4.72;;
55364;SDS011;41245;45.384;20.390;2022-08-18T08:41:23;4.57;;;4.18;;
55364;SDS011;41245;45.384;20.390;2022-08-18T08:49:36;6.57;;;4.20;;
55364;SDS011;41245;45.384;20.390;2022-08-18T08:52:08;5.97;;;4.65;;
55364;SDS011;41245;45.384;20.390;2022-08-18T08:54:46;6.75;;;5.18;;
55364;SDS011;41245;45.384;20.390;2022-08-18T08:57:14;8.93;;;4.70;;
55364;SDS011;41245;45.384;20.390;2022-08-18T08:59:41;16.88;;;5.55;;
55364;SDS011;41245;45.384;20.390;2022-08-18T09:07:42;11.33;;;3.90;;
55364;SDS011;41245;45.384;20.390;2022-08-18T09:13:16;9.43;;;4.25;;
55364;SDS011;41245;45.384;20.390;2022-08-18T09:16:34;5.30;;;3.90;;
55364;SDS011;41245;45.384;20.390;2022-08-18T09:24:44;7.00;;;3.33;;
55364;SDS011;41245;45.384;20.390;2022-08-18T09:31:48;9.50;;;4.18;;
55364;SDS011;41245;45.384;20.390;2022-08-18T09:40:02;8.00;;;3.08;;
55364;SDS011;41245;45.384;20.390;2022-08-18T09:42:50;8.95;;;4.18;;
55364;SDS011;41245;45.384;20.390;2022-08-18T09:45:50;7.20;;;4.07;;
55364;SDS011;41245;45.384;20.390;2022-08-18T09:55:54;4.57;;;3.30;;
55364;SDS011;41245;45.384;20.390;2022-08-18T10:01:53;7.35;;;4.70;;
55364;SDS011;41245;45.384;20.390;2022-08-18T10:06:53;9.75;;;3.28;;
55364;SDS011;41245;45.384;20.390;2022-08-18T10:17:28;5.40;;;3.60;;
55364;SDS011;41245;45.384;20.390;2022-08-18T10:22:50;5.38;;;2.92;;
55364;SDS011;41245;45.384;20.390;2022-08-18T10:27:57;4.47;;;3.17;;
55364;SDS011;41245;45.384;20.390;2022-08-18T10:32:58;9.63;;;3.72;;
55364;SDS011;41245;45.384;20.390;2022-08-18T10:38:11;6.72;;;3.17;;
55364;SDS011;41245;45.384;20.390;2022-08-18T10:40:39;9.32;;;3.78;;
55364;SDS011;41245;45.384;20.390;2022-08-18T10:43:17;4.35;;;3.50;;
55364;SDS011;41245;45.384;20.390;2022-08-18T10:45:48;6.43;;;3.40;;
55364;SDS011;41245;45.384;20.390;2022-08-18T10:48:27;7.05;;;4.30;;
55364;SDS011;41245;45.384;20.390;2022-08-18T10:53:58;5.07;;;3.40;;
55364;SDS011;41245;45.384;20.390;2022-08-18T10:56:30;6.90;;;3.28;;
55364;SDS011;41245;45.384;20.390;2022-08-18T11:04:28;3.63;;;3.17;;
55364;SDS011;41245;45.384;20.390;2022-08-18T11:09:36;9.65;;;4.45;;
55364;SDS011;41245;45.384;20.390;2022-08-18T11:12:03;7.40;;;4.18;;
55364;SDS011;41245;45.384;20.390;2022-08-18T11:19:28;3.40;;;3.10;;
55364;SDS011;41245;45.384;20.390;2022-08-18T11:22:02;7.38;;;4.15;;
55364;SDS011;41245;45.384;20.390;2022-08-18T11:24:29;6.95;;;3.05;;
55364;SDS011;41245;45.384;20.390;2022-08-18T11:27:01;6.82;;;3.45;;
55364;SDS011;41245;45.384;20.390;2022-08-18T11:29:28;7.38;;;3.55;;
55364;SDS011;41245;45.384;20.390;2022-08-18T11:31:59;4.53;;;2.65;;
55364;SDS011;41245;45.384;20.390;2022-08-18T11:34:28;4.18;;;2.90;;
55364;SDS011;41245;45.384;20.390;2022-08-18T11:36:59;4.32;;;2.90;;
55364;SDS011;41245;45.384;20.390;2022-08-18T11:39:26;4.43;;;3.50;;
55364;SDS011;41245;45.384;20.390;2022-08-18T11:41:52;6.55;;;3.40;;
55364;SDS011;41245;45.384;20.390;2022-08-18T11:44:20;8.60;;;3.13;;
55364;SDS011;41245;45.384;20.390;2022-08-18T11:46:49;12.38;;;3.47;;
55364;SDS011;41245;45.384;20.390;2022-08-18T11:49:24;5.22;;;3.40;;
55364;SDS011;41245;45.384;20.390;2022-08-18T11:51:52;8.65;;;3.10;;
55364;SDS011;41245;45.384;20.390;2022-08-18T11:54:20;3.72;;;2.80;;
55364;SDS011;41245;45.384;20.390;2022-08-18T11:56:46;7.47;;;3.83;;
55364;SDS011;41245;45.384;20.390;2022-08-18T12:01:51;7.35;;;3.33;;
55364;SDS011;41245;45.384;20.390;2022-08-18T12:04:41;5.43;;;2.95;;
55364;SDS011;41245;45.384;20.390;2022-08-18T12:07:08;10.07;;;3.38;;
55364;SDS011;41245;45.384;20.390;2022-08-18T12:15:00;8.98;;;3.10;;
55364;SDS011;41245;45.384;20.390;2022-08-18T12:17:27;17.27;;;3.40;;
55364;SDS011;41245;45.384;20.390;2022-08-18T12:19:53;9.30;;;3.50;;
55364;SDS011;41245;45.384;20.390;2022-08-18T12:22:23;7.00;;;2.90;;
55364;SDS011;41245;45.384;20.390;2022-08-18T12:24:49;10.55;;;3.15;;
55364;SDS011;41245;45.384;20.390;2022-08-18T12:27:17;8.48;;;2.97;;
55364;SDS011;41245;45.384;20.390;2022-08-18T12:29:44;6.10;;;2.70;;
55364;SDS011;41245;45.384;20.390;2022-08-18T12:32:10;11.20;;;3.30;;
55364;SDS011;41245;45.384;20.390;2022-08-18T12:34:36;7.68;;;2.92;;
55364;SDS011;41245;45.384;20.390;2022-08-18T12:37:02;7.35;;;3.15;;
55364;SDS011;41245;45.384;20.390;2022-08-18T12:39:30;9.15;;;3.08;;
55364;SDS011;41245;45.384;20.390;2022-08-18T12:41:56;9.00;;;3.35;;
55364;SDS011;41245;45.384;20.390;2022-08-18T12:44:22;9.18;;;3.25;;
55364;SDS011;41245;45.384;20.390;2022-08-18T12:46:48;5.88;;;3.03;;
55364;SDS011;41245;45.384;20.390;2022-08-18T12:49:16;7.63;;;2.72;;
55364;SDS011;41245;45.384;20.390;2022-08-18T12:51:43;8.43;;;3.22;;
55364;SDS011;41245;45.384;20.390;2022-08-18T12:54:09;6.10;;;2.70;;
55364;SDS011;41245;45.384;20.390;2022-08-18T12:56:35;5.70;;;3.20;;
55364;SDS011;41245;45.384;20.390;2022-08-18T12:59:03;12.30;;;3.05;;
55364;SDS011;41245;45.384;20.390;2022-08-18T13:01:29;3.30;;;2.72;;
55364;SDS011;41245;45.384;20.390;2022-08-18T13:03:56;7.38;;;3.80;;
55364;SDS011;41245;45.384;20.390;2022-08-18T13:06:23;5.93;;;3.38;;
55364;SDS011;41245;45.384;20.390;2022-08-18T13:08:50;7.88;;;4.88;;
55364;SDS011;41245;45.384;20.390;2022-08-18T13:11:17;8.90;;;2.97;;
55364;SDS011;41245;45.384;20.390;2022-08-18T13:13:43;11.43;;;3.17;;
55364;SDS011;41245;45.384;20.390;2022-08-18T13:16:09;11.63;;;3.70;;
55364;SDS011;41245;45.384;20.390;2022-08-18T13:18:36;10.65;;;3.50;;
55364;SDS011;41245;45.384;20.390;2022-08-18T13:21:06;10.15;;;3.63;;
55364;SDS011;41245;45.384;20.390;2022-08-18T13:23:32;8.65;;;3.63;;
55364;SDS011;41245;45.384;20.390;2022-08-18T13:25:59;5.95;;;2.72;;
55364;SDS011;41245;45.384;20.390;2022-08-18T13:28:25;6.75;;;3.60;;
55364;SDS011;41245;45.384;20.390;2022-08-18T13:30:52;9.50;;;3.50;;
55364;SDS011;41245;45.384;20.390;2022-08-18T13:33:18;6.30;;;3.20;;
55364;SDS011;41245;45.384;20.390;2022-08-18T13:35:45;4.75;;;3.28;;
55364;SDS011;41245;45.384;20.390;2022-08-18T13:38:12;7.60;;;3.38;;
55364;SDS011;41245;45.384;20.390;2022-08-18T13:40:38;3.97;;;2.70;;
55364;SDS011;41245;45.384;20.390;2022-08-18T13:43:04;8.30;;;3.80;;
55364;SDS011;41245;45.384;20.390;2022-08-18T13:45:32;11.82;;;3.05;;
55364;SDS011;41245;45.384;20.390;2022-08-18T13:47:58;8.13;;;4.32;;
55364;SDS011;41245;45.384;20.390;2022-08-18T13:50:25;4.95;;;3.38;;
55364;SDS011;41245;45.384;20.390;2022-08-18T13:52:51;12.75;;;4.50;;
55364;SDS011;41245;45.384;20.390;2022-08-18T13:55:18;6.20;;;2.95;;
55364;SDS011;41245;45.384;20.390;2022-08-18T13:57:44;10.88;;;3.30;;
55364;SDS011;41245;45.384;20.390;2022-08-18T14:00:17;10.30;;;3.85;;
55364;SDS011;41245;45.384;20.390;2022-08-18T14:02:48;9.07;;;3.15;;
55364;SDS011;41245;45.384;20.390;2022-08-18T14:05:17;8.02;;;3.00;;
55364;SDS011;41245;45.384;20.390;2022-08-18T14:07:43;9.45;;;3.25;;
55364;SDS011;41245;45.384;20.390;2022-08-18T14:10:09;9.65;;;3.08;;
55364;SDS011;41245;45.384;20.390;2022-08-18T14:12:37;11.98;;;4.50;;
55364;SDS011;41245;45.384;20.390;2022-08-18T14:15:05;4.82;;;3.22;;
55364;SDS011;41245;45.384;20.390;2022-08-18T14:17:31;9.13;;;2.95;;
55364;SDS011;41245;45.384;20.390;2022-08-18T14:19:59;9.52;;;3.42;;
55364;SDS011;41245;45.384;20.390;2022-08-18T14:22:44;12.65;;;3.78;;
55364;SDS011;41245;45.384;20.390;2022-08-18T14:25:29;4.90;;;2.45;;
55364;SDS011;41245;45.384;20.390;2022-08-18T14:28:15;7.50;;;2.85;;
55364;SDS011;41245;45.384;20.390;2022-08-18T14:30:43;5.90;;;3.07;;
55364;SDS011;41245;45.384;20.390;2022-08-18T14:33:10;8.57;;;3.58;;
55364;SDS011;41245;45.384;20.390;2022-08-18T14:35:39;6.67;;;3.10;;
55364;SDS011;41245;45.384;20.390;2022-08-18T14:38:05;13.23;;;3.20;;
55364;SDS011;41245;45.384;20.390;2022-08-18T14:40:32;11.65;;;3.15;;
55364;SDS011;41245;45.384;20.390;2022-08-18T14:42:59;4.50;;;2.95;;
55364;SDS011;41245;45.384;20.390;2022-08-18T14:45:28;6.15;;;2.70;;
55364;SDS011;41245;45.384;20.390;2022-08-18T14:47:55;6.57;;;2.70;;
55364;SDS011;41245;45.384;20.390;2022-08-18T14:50:21;8.68;;;3.60;;
55364;SDS011;41245;45.384;20.390;2022-08-18T14:52:48;6.25;;;2.80;;
55364;SDS011;41245;45.384;20.390;2022-08-18T14:55:14;7.65;;;3.38;;
55364;SDS011;41245;45.384;20.390;2022-08-18T14:57:41;11.15;;;4.38;;
55364;SDS011;41245;45.384;20.390;2022-08-18T15:00:08;9.63;;;3.10;;
55364;SDS011;41245;45.384;20.390;2022-08-18T15:02:39;5.38;;;3.13;;
55364;SDS011;41245;45.384;20.390;2022-08-18T15:05:05;8.05;;;3.42;;
55364;SDS011;41245;45.384;20.390;2022-08-18T15:07:33;10.25;;;3.13;;
55364;SDS011;41245;45.384;20.390;2022-08-18T15:09:59;5.18;;;3.33;;
55364;SDS011;41245;45.384;20.390;2022-08-18T15:12:25;10.05;;;3.60;;
55364;SDS011;41245;45.384;20.390;2022-08-18T15:14:51;6.97;;;3.92;;
55364;SDS011;41245;45.384;20.390;2022-08-18T15:17:17;7.15;;;3.42;;
55364;SDS011;41245;45.384;20.390;2022-08-18T15:19:44;8.27;;;2.90;;
55364;SDS011;41245;45.384;20.390;2022-08-18T15:22:11;7.75;;;3.30;;
55364;SDS011;41245;45.384;20.390;2022-08-18T15:24:56;14.95;;;3.30;;
55364;SDS011;41245;45.384;20.390;2022-08-18T15:27:41;11.85;;;3.05;;
55364;SDS011;41245;45.384;20.390;2022-08-18T15:30:09;5.25;;;3.10;;
55364;SDS011;41245;45.384;20.390;2022-08-18T15:32:36;10.23;;;3.67;;
55364;SDS011;41245;45.384;20.390;2022-08-18T15:35:03;5.68;;;3.03;;
55364;SDS011;41245;45.384;20.390;2022-08-18T15:37:32;11.65;;;3.25;;
55364;SDS011;41245;45.384;20.390;2022-08-18T15:40:00;7.95;;;3.13;;
55364;SDS011;41245;45.384;20.390;2022-08-18T15:42:27;5.90;;;2.63;;
55364;SDS011;41245;45.384;20.390;2022-08-18T15:44:53;9.50;;;3.10;;
55364;SDS011;41245;45.384;20.390;2022-08-18T15:47:20;11.13;;;3.28;;
55364;SDS011;41245;45.384;20.390;2022-08-18T15:49:47;11.75;;;2.90;;
55364;SDS011;41245;45.384;20.390;2022-08-18T15:52:13;6.07;;;2.90;;
55364;SDS011;41245;45.384;20.390;2022-08-18T15:54:39;13.60;;;3.15;;
55364;SDS011;41245;45.384;20.390;2022-08-18T15:57:05;12.50;;;2.60;;
55364;SDS011;41245;45.384;20.390;2022-08-18T15:59:33;4.95;;;2.83;;
55364;SDS011;41245;45.384;20.390;2022-08-18T16:01:59;12.38;;;3.83;;
55364;SDS011;41245;45.384;20.390;2022-08-18T16:04:26;10.02;;;3.25;;
55364;SDS011;41245;45.384;20.390;2022-08-18T16:06:52;6.38;;;3.10;;
55364;SDS011;41245;45.384;20.390;2022-08-18T16:09:19;9.30;;;3.70;;
55364;SDS011;41245;45.384;20.390;2022-08-18T16:11:45;7.97;;;2.90;;
55364;SDS011;41245;45.384;20.390;2022-08-18T16:14:11;7.70;;;2.97;;
55364;SDS011;41245;45.384;20.390;2022-08-18T16:16:37;7.55;;;3.05;;
55364;SDS011;41245;45.384;20.390;2022-08-18T16:19:04;11.60;;;3.55;;
55364;SDS011;41245;45.384;20.390;2022-08-18T16:21:30;10.30;;;3.22;;
55364;SDS011;41245;45.384;20.390;2022-08-18T16:23:56;14.90;;;5.07;;
55364;SDS011;41245;45.384;20.390;2022-08-18T16:26:22;11.05;;;3.80;;
55364;SDS011;41245;45.384;20.390;2022-08-18T16:28:49;5.68;;;3.15;;
55364;SDS011;41245;45.384;20.390;2022-08-18T16:31:16;7.90;;;3.33;;
55364;SDS011;41245;45.384;20.390;2022-08-18T16:33:44;10.68;;;3.30;;
55364;SDS011;41245;45.384;20.390;2022-08-18T16:36:11;13.55;;;3.20;;
55364;SDS011;41245;45.384;20.390;2022-08-18T16:38:40;16.75;;;5.43;;
55364;SDS011;41245;45.384;20.390;2022-08-18T16:41:09;10.90;;;5.28;;
55364;SDS011;41245;45.384;20.390;2022-08-18T16:43:37;12.27;;;4.95;;
55364;SDS011;41245;45.384;20.390;2022-08-18T16:46:08;8.30;;;3.65;;
55364;SDS011;41245;45.384;20.390;2022-08-18T16:48:34;7.50;;;3.17;;
55364;SDS011;41245;45.384;20.390;2022-08-18T16:51:00;17.05;;;3.55;;
55364;SDS011;41245;45.384;20.390;2022-08-18T16:53:27;7.40;;;3.03;;
55364;SDS011;41245;45.384;20.390;2022-08-18T16:55:53;7.03;;;2.95;;
55364;SDS011;41245;45.384;20.390;2022-08-18T16:58:20;11.98;;;3.55;;
55364;SDS011;41245;45.384;20.390;2022-08-18T17:01:04;14.13;;;3.78;;
55364;SDS011;41245;45.384;20.390;2022-08-18T17:03:49;8.43;;;3.20;;
55364;SDS011;41245;45.384;20.390;2022-08-18T17:06:35;8.85;;;3.15;;
55364;SDS011;41245;45.384;20.390;2022-08-18T17:09:02;9.00;;;4.35;;
55364;SDS011;41245;45.384;20.390;2022-08-18T17:11:28;8.77;;;3.58;;
55364;SDS011;41245;45.384;20.390;2022-08-18T17:13:56;11.77;;;3.50;;
55364;SDS011;41245;45.384;20.390;2022-08-18T17:16:23;9.68;;;2.78;;
55364;SDS011;41245;45.384;20.390;2022-08-18T17:18:50;15.57;;;3.90;;